createdAt,value
2019-01-30T00:00:37.597Z,0.60
2019-01-30T00:01:20.467Z,0.60
2019-01-30T00:01:58.189Z,0.60
2019-01-30T00:02:36.977Z,0.60
2019-01-30T00:03:15.784Z,0.70
2019-01-30T00:03:53.573Z,0.60
2019-01-30T00:04:33.125Z,0.70
2019-01-30T00:05:10.989Z,0.70
2019-01-30T00:05:50.463Z,0.70
2019-01-30T00:06:28.215Z,0.70
2019-01-30T00:07:06.599Z,0.70
2019-01-30T00:07:44.004Z,0.70
2019-01-30T00:08:22.595Z,0.70
2019-01-30T00:09:01.820Z,0.80
2019-01-30T00:09:39.299Z,0.70
2019-01-30T00:10:17.267Z,0.80
2019-01-30T00:10:55.109Z,0.80
2019-01-30T00:11:33.183Z,0.80
2019-01-30T00:12:11.441Z,0.80
2019-01-30T00:12:48.838Z,0.80
2019-01-30T00:13:27.017Z,0.80
2019-01-30T00:14:05.245Z,0.80
2019-01-30T00:14:42.613Z,0.80
2019-01-30T00:15:20.704Z,0.90
2019-01-30T00:15:58.489Z,0.90
2019-01-30T00:16:38.721Z,0.90
2019-01-30T00:17:16.709Z,0.90
2019-01-30T00:17:54.995Z,0.90
2019-01-30T00:18:34.881Z,0.90
2019-01-30T00:19:12.227Z,0.90
2019-01-30T00:20:00.355Z,0.90
2019-01-30T00:20:39.804Z,0.90
2019-01-30T00:21:17.669Z,1.00
2019-01-30T00:21:55.739Z,0.90
2019-01-30T00:22:33.140Z,0.90
2019-01-30T00:23:09.954Z,0.90
2019-01-30T00:23:47.377Z,1.00
2019-01-30T00:24:25.063Z,1.00
2019-01-30T00:25:02.747Z,1.00
2019-01-30T00:25:41.347Z,1.00
2019-01-30T00:26:18.727Z,1.00
2019-01-30T00:26:56.133Z,1.00
2019-01-30T00:27:33.791Z,1.00
2019-01-30T00:28:11.345Z,1.00
2019-01-30T00:28:50.787Z,1.00
2019-01-30T00:29:28.277Z,1.00
2019-01-30T00:30:08.101Z,1.00
2019-01-30T00:30:46.737Z,1.00
2019-01-30T00:31:26.335Z,1.00
2019-01-30T00:32:04.688Z,1.10
2019-01-30T00:32:41.809Z,1.00
2019-01-30T00:33:20.153Z,1.10
2019-01-30T00:33:57.586Z,1.10
2019-01-30T00:34:36.727Z,1.10
2019-01-30T00:35:14.332Z,1.10
2019-01-30T00:35:52.483Z,1.10
2019-01-30T00:36:30.167Z,1.10
2019-01-30T00:37:08.388Z,1.10
2019-01-30T00:37:47.079Z,1.10
2019-01-30T00:38:25.570Z,1.10
2019-01-30T00:39:05.402Z,1.10
2019-01-30T00:39:43.418Z,1.10
2019-01-30T00:40:22.430Z,1.10
2019-01-30T00:41:01.032Z,1.10
2019-01-30T00:41:39.128Z,1.10
2019-01-30T00:42:17.195Z,1.10
2019-01-30T00:42:54.579Z,1.10
2019-01-30T00:43:32.256Z,1.10
2019-01-30T00:44:10.035Z,1.10
2019-01-30T00:44:47.322Z,1.10
2019-01-30T00:45:25.147Z,1.10
2019-01-30T00:46:04.068Z,1.10
2019-01-30T00:46:42.443Z,1.20
2019-01-30T00:47:20.474Z,1.20
2019-01-30T00:47:58.450Z,1.10
2019-01-30T00:48:35.823Z,1.20
2019-01-30T00:49:13.509Z,1.20
2019-01-30T00:49:51.422Z,1.20
2019-01-30T00:50:29.376Z,1.20
2019-01-30T00:51:06.939Z,1.20
2019-01-30T00:51:44.726Z,1.20
2019-01-30T00:52:23.544Z,1.20
2019-01-30T00:53:02.286Z,1.20
2019-01-30T00:53:40.311Z,1.20
2019-01-30T00:54:17.311Z,1.20
2019-01-30T00:54:55.418Z,1.20
2019-01-30T00:55:32.593Z,1.20
2019-01-30T00:56:10.542Z,1.20
2019-01-30T00:56:49.092Z,1.20
2019-01-30T00:57:29.534Z,1.20
2019-01-30T00:58:06.867Z,1.20
2019-01-30T00:58:44.791Z,1.30
2019-01-30T00:59:21.827Z,1.20
2019-01-30T00:59:59.603Z,1.20
2019-01-30T01:00:37.411Z,1.20
2019-01-30T01:01:15.958Z,1.20
2019-01-30T01:01:53.884Z,1.30
2019-01-30T01:02:31.588Z,1.30
2019-01-30T01:03:10.161Z,1.30
2019-01-30T01:03:47.672Z,1.30
2019-01-30T01:04:27.135Z,1.30
2019-01-30T01:05:04.835Z,1.30
2019-01-30T01:05:42.337Z,1.30
2019-01-30T01:06:19.817Z,1.30
2019-01-30T01:06:57.846Z,1.30
2019-01-30T01:07:35.522Z,1.30
2019-01-30T01:08:12.864Z,1.30
2019-01-30T01:08:50.363Z,1.30
2019-01-30T01:09:28.682Z,1.30
2019-01-30T01:10:08.864Z,1.30
2019-01-30T01:10:45.997Z,1.30
2019-01-30T01:11:24.018Z,1.30
2019-01-30T01:12:06.506Z,1.30
2019-01-30T01:12:44.133Z,1.30
2019-01-30T01:13:21.612Z,1.30
2019-01-30T01:13:59.678Z,1.30
2019-01-30T01:14:37.404Z,1.30
2019-01-30T01:15:35.236Z,1.30
2019-01-30T01:16:14.104Z,1.30
2019-01-30T01:16:51.220Z,1.30
2019-01-30T01:17:29.252Z,1.30
2019-01-30T01:18:07.270Z,1.30
2019-01-30T01:18:44.926Z,1.30
2019-01-30T01:19:25.488Z,1.30
2019-01-30T01:20:02.512Z,1.30
2019-01-30T01:20:39.901Z,1.30
2019-01-30T01:21:17.360Z,1.30
2019-01-30T01:21:56.151Z,1.30
2019-01-30T01:22:34.507Z,1.30
2019-01-30T01:23:12.556Z,1.30
2019-01-30T01:23:50.343Z,1.30
2019-01-30T01:24:27.827Z,1.30
2019-01-30T01:25:11.362Z,1.30
2019-01-30T01:25:49.476Z,1.30
2019-01-30T01:26:27.323Z,1.30
2019-01-30T01:27:05.164Z,1.30
2019-01-30T01:27:43.404Z,1.30
2019-01-30T01:28:20.060Z,1.30
2019-01-30T01:28:57.757Z,1.30
2019-01-30T01:29:36.048Z,1.30
2019-01-30T01:30:24.867Z,1.30
2019-01-30T01:30:56.228Z,1.30
2019-01-30T01:31:34.226Z,1.30
2019-01-30T01:32:12.994Z,1.30
2019-01-30T01:32:50.842Z,1.30
2019-01-30T01:33:29.071Z,1.30
2019-01-30T01:34:06.800Z,1.30
2019-01-30T01:34:44.480Z,1.30
2019-01-30T01:35:22.717Z,1.30
2019-01-30T01:36:00.642Z,1.30
2019-01-30T01:36:39.039Z,1.30
2019-01-30T01:37:17.267Z,1.30
2019-01-30T01:37:55.722Z,1.30
2019-01-30T01:38:33.563Z,1.30
2019-01-30T01:39:11.796Z,1.30
2019-01-30T01:39:51.023Z,1.40
2019-01-30T01:40:29.513Z,1.30
2019-01-30T01:41:07.336Z,1.40
2019-01-30T01:41:45.144Z,1.30
2019-01-30T01:42:23.276Z,1.40
2019-01-30T01:43:00.379Z,1.40
2019-01-30T01:43:38.753Z,1.30
2019-01-30T01:44:16.546Z,1.30
2019-01-30T01:44:54.430Z,1.30
2019-01-30T01:45:32.064Z,1.40
2019-01-30T01:46:10.096Z,1.40
2019-01-30T01:46:47.834Z,1.40
2019-01-30T01:47:24.834Z,1.40
2019-01-30T01:48:03.265Z,1.40
2019-01-30T01:48:41.220Z,1.40
2019-01-30T01:49:18.902Z,1.40
2019-01-30T01:49:56.917Z,1.40
2019-01-30T01:50:34.660Z,1.40
2019-01-30T01:51:12.560Z,1.40
2019-01-30T01:51:49.866Z,1.40
2019-01-30T01:52:27.427Z,1.40
2019-01-30T01:53:05.714Z,1.40
2019-01-30T01:53:43.173Z,1.40
2019-01-30T01:54:21.673Z,1.40
2019-01-30T01:54:59.078Z,1.40
2019-01-30T01:55:36.776Z,1.40
2019-01-30T01:56:14.102Z,1.40
2019-01-30T01:56:52.165Z,1.40
2019-01-30T01:57:30.496Z,1.40
2019-01-30T01:58:07.834Z,1.40
2019-01-30T01:58:45.380Z,1.40
2019-01-30T01:59:23.557Z,1.40
2019-01-30T02:00:01.715Z,1.40
2019-01-30T02:00:39.746Z,1.40
2019-01-30T02:01:17.430Z,1.40
2019-01-30T02:01:55.317Z,1.40
2019-01-30T02:02:33.437Z,1.40
2019-01-30T02:03:11.473Z,1.40
2019-01-30T02:03:48.953Z,1.50
2019-01-30T02:04:26.884Z,1.40
2019-01-30T02:05:05.794Z,1.40
2019-01-30T02:05:43.594Z,1.50
2019-01-30T02:06:20.644Z,1.40
2019-01-30T02:06:58.584Z,1.40
2019-01-30T02:07:36.054Z,1.50
2019-01-30T02:08:14.032Z,1.50
2019-01-30T02:08:51.749Z,1.50
2019-01-30T02:09:29.761Z,1.40
2019-01-30T02:10:08.980Z,1.50
2019-01-30T02:10:46.979Z,1.40
2019-01-30T02:11:24.584Z,1.50
2019-01-30T02:12:01.683Z,1.50
2019-01-30T02:12:39.350Z,1.50
2019-01-30T02:13:17.786Z,1.50
2019-01-30T02:13:55.836Z,1.40
2019-01-30T02:14:33.952Z,1.50
2019-01-30T02:15:14.340Z,1.50
2019-01-30T02:15:51.333Z,1.50
2019-01-30T02:16:29.115Z,1.50
2019-01-30T02:17:06.696Z,1.50
2019-01-30T02:17:44.894Z,1.50
2019-01-30T02:18:21.860Z,1.40
2019-01-30T02:18:59.692Z,1.40
2019-01-30T02:19:37.766Z,1.50
2019-01-30T02:20:18.080Z,1.40
2019-01-30T02:20:55.798Z,1.50
2019-01-30T02:21:33.756Z,1.50
2019-01-30T02:22:11.342Z,1.50
2019-01-30T02:22:49.457Z,1.50
2019-01-30T02:23:26.778Z,1.50
2019-01-30T02:24:04.650Z,1.50
2019-01-30T02:24:42.486Z,1.50
2019-01-30T02:25:20.598Z,1.50
2019-01-30T02:25:58.496Z,1.50
2019-01-30T02:26:36.376Z,1.50
2019-01-30T02:27:13.523Z,1.50
2019-01-30T02:27:51.590Z,1.50
2019-01-30T02:28:28.886Z,1.50
2019-01-30T02:29:06.162Z,1.50
2019-01-30T02:29:43.801Z,1.50
2019-01-30T02:30:23.641Z,1.50
2019-01-30T02:31:02.139Z,1.50
2019-01-30T02:31:39.974Z,1.50
2019-01-30T02:32:18.184Z,1.50
2019-01-30T02:32:56.130Z,1.50
2019-01-30T02:33:34.354Z,1.50
2019-01-30T02:34:12.544Z,1.50
2019-01-30T02:34:49.199Z,1.50
2019-01-30T02:35:27.620Z,1.50
2019-01-30T02:36:05.422Z,1.50
2019-01-30T02:36:58.735Z,1.50
2019-01-30T02:37:36.164Z,1.50
2019-01-30T02:38:14.440Z,1.50
2019-01-30T02:38:52.440Z,1.50
2019-01-30T02:39:30.473Z,1.50
2019-01-30T02:40:09.648Z,1.50
2019-01-30T02:40:47.918Z,1.50
2019-01-30T02:41:25.863Z,1.50
2019-01-30T02:42:04.128Z,1.50
2019-01-30T02:42:41.810Z,1.50
2019-01-30T02:43:19.465Z,1.50
2019-01-30T02:43:57.485Z,1.50
2019-01-30T02:44:39.146Z,1.50
2019-01-30T02:45:18.964Z,1.50
2019-01-30T02:45:56.709Z,1.50
2019-01-30T02:46:34.779Z,1.50
2019-01-30T02:47:12.404Z,1.50
2019-01-30T02:47:49.802Z,1.50
2019-01-30T02:48:27.818Z,1.50
2019-01-30T02:49:05.404Z,1.50
2019-01-30T02:49:44.623Z,1.50
2019-01-30T02:50:22.790Z,1.50
2019-01-30T02:51:00.228Z,1.50
2019-01-30T02:51:37.692Z,1.50
2019-01-30T02:52:15.384Z,1.50
2019-01-30T02:52:53.690Z,1.50
2019-01-30T02:53:31.704Z,1.50
2019-01-30T02:54:09.719Z,1.50
2019-01-30T02:54:47.954Z,1.50
2019-01-30T02:55:25.482Z,1.50
2019-01-30T02:56:02.964Z,1.50
2019-01-30T02:56:40.911Z,1.50
2019-01-30T02:57:18.849Z,1.50
2019-01-30T02:57:56.626Z,1.50
2019-01-30T02:58:34.124Z,1.50
2019-01-30T02:59:12.557Z,1.60
2019-01-30T02:59:50.036Z,1.50
2019-01-30T03:00:29.901Z,1.50
2019-01-30T03:01:08.180Z,1.50
2019-01-30T03:02:11.099Z,1.50
2019-01-30T03:02:49.349Z,1.50
2019-01-30T03:03:27.287Z,1.60
2019-01-30T03:04:05.149Z,1.50
2019-01-30T03:04:42.728Z,1.50
2019-01-30T03:05:19.899Z,1.50
2019-01-30T03:05:57.614Z,1.50
2019-01-30T03:06:35.779Z,1.50
2019-01-30T03:07:13.789Z,1.50
2019-01-30T03:07:51.300Z,1.50
2019-01-30T03:08:28.655Z,1.50
2019-01-30T03:09:08.949Z,1.50
2019-01-30T03:09:46.585Z,1.50
2019-01-30T03:10:24.495Z,1.50
2019-01-30T03:11:04.650Z,1.50
2019-01-30T03:11:41.732Z,1.50
2019-01-30T03:12:19.387Z,1.50
2019-01-30T03:12:57.696Z,1.50
2019-01-30T03:13:35.854Z,1.50
2019-01-30T03:14:13.177Z,1.50
2019-01-30T03:14:51.438Z,1.50
2019-01-30T03:15:29.395Z,1.50
2019-01-30T03:16:06.462Z,1.50
2019-01-30T03:16:44.506Z,1.50
2019-01-30T03:17:22.934Z,1.50
2019-01-30T03:18:01.028Z,1.50
2019-01-30T03:18:38.153Z,1.50
2019-01-30T03:19:16.065Z,1.50
2019-01-30T03:19:54.404Z,1.50
2019-01-30T03:20:32.127Z,1.50
2019-01-30T03:21:09.788Z,1.50
2019-01-30T03:21:47.039Z,1.50
2019-01-30T03:22:24.648Z,1.50
2019-01-30T03:23:02.566Z,1.50
2019-01-30T03:23:40.328Z,1.50
2019-01-30T03:24:17.808Z,1.50
2019-01-30T03:24:55.968Z,1.50
2019-01-30T03:25:33.718Z,1.50
2019-01-30T03:26:10.984Z,1.50
2019-01-30T03:26:49.718Z,1.50
2019-01-30T03:27:27.276Z,1.50
2019-01-30T03:28:05.494Z,1.50
2019-01-30T03:28:42.950Z,1.50
2019-01-30T03:29:20.728Z,1.50
2019-01-30T03:29:58.429Z,1.50
2019-01-30T03:30:36.289Z,1.50
2019-01-30T03:31:18.893Z,1.50
2019-01-30T03:31:55.739Z,1.50
2019-01-30T03:32:34.140Z,1.50
2019-01-30T03:33:12.505Z,1.50
2019-01-30T03:33:51.316Z,1.50
2019-01-30T03:34:29.033Z,1.50
2019-01-30T03:35:06.538Z,1.50
2019-01-30T03:35:44.421Z,1.50
2019-01-30T03:36:22.309Z,1.50
2019-01-30T03:37:00.580Z,1.50
2019-01-30T03:37:38.696Z,1.50
2019-01-30T03:38:15.682Z,1.50
2019-01-30T03:38:54.114Z,1.50
2019-01-30T03:39:32.336Z,1.50
2019-01-30T03:40:12.540Z,1.50
2019-01-30T03:40:50.368Z,1.50
2019-01-30T03:41:27.988Z,1.50
2019-01-30T03:42:06.064Z,1.50
2019-01-30T03:42:43.905Z,1.50
2019-01-30T03:43:21.537Z,1.50
2019-01-30T03:43:59.532Z,1.50
2019-01-30T03:44:39.439Z,1.50
2019-01-30T03:45:19.041Z,1.50
2019-01-30T03:45:56.854Z,1.50
2019-01-30T03:46:34.066Z,1.50
2019-01-30T03:47:12.140Z,1.40
2019-01-30T03:47:50.066Z,1.50
2019-01-30T03:48:27.484Z,1.50
2019-01-30T03:49:04.526Z,1.50
2019-01-30T03:49:42.163Z,1.40
2019-01-30T03:50:19.615Z,1.50
2019-01-30T03:50:56.616Z,1.50
2019-01-30T03:51:34.375Z,1.40
2019-01-30T03:52:11.983Z,1.40
2019-01-30T03:52:49.899Z,1.40
2019-01-30T03:53:27.799Z,1.50
2019-01-30T03:54:05.300Z,1.50
2019-01-30T03:54:43.296Z,1.50
2019-01-30T03:55:20.627Z,1.50
2019-01-30T03:55:58.169Z,1.50
2019-01-30T03:56:35.625Z,1.40
2019-01-30T03:57:13.142Z,1.50
2019-01-30T03:57:51.031Z,1.50
2019-01-30T03:58:28.102Z,1.40
2019-01-30T03:59:05.550Z,1.50
2019-01-30T03:59:43.351Z,1.50
2019-01-30T04:00:25.640Z,1.50
2019-01-30T04:01:03.611Z,1.50
2019-01-30T04:01:41.626Z,1.50
2019-01-30T04:02:19.516Z,1.40
2019-01-30T04:02:56.970Z,1.50
2019-01-30T04:03:34.772Z,1.50
2019-01-30T04:04:12.779Z,1.40
2019-01-30T04:04:50.891Z,1.40
2019-01-30T04:05:28.050Z,1.40
2019-01-30T04:06:05.830Z,1.40
2019-01-30T04:06:43.288Z,1.40
2019-01-30T04:07:20.992Z,1.40
2019-01-30T04:07:59.177Z,1.30
2019-01-30T04:08:36.909Z,1.30
2019-01-30T04:09:14.576Z,1.30
2019-01-30T04:10:11.040Z,1.30
2019-01-30T04:10:49.044Z,1.20
2019-01-30T04:11:26.540Z,1.20
2019-01-30T04:12:04.470Z,1.20
2019-01-30T04:12:42.109Z,1.20
2019-01-30T04:13:20.651Z,1.20
2019-01-30T04:14:00.690Z,1.10
2019-01-30T04:14:37.980Z,1.20
2019-01-30T04:15:17.190Z,1.10
2019-01-30T04:15:54.496Z,1.10
2019-01-30T04:16:32.296Z,1.10
2019-01-30T04:17:09.776Z,1.10
2019-01-30T04:17:52.906Z,1.10
2019-01-30T04:18:30.597Z,1.00
2019-01-30T04:19:09.244Z,1.00
2019-01-30T04:19:46.648Z,1.00
2019-01-30T04:20:24.380Z,1.00
2019-01-30T04:21:01.739Z,1.00
2019-01-30T04:21:39.506Z,0.90
2019-01-30T04:22:17.504Z,1.00
2019-01-30T04:22:55.165Z,1.00
2019-01-30T04:23:33.156Z,1.00
2019-01-30T04:24:10.804Z,1.00
2019-01-30T04:24:48.677Z,0.90
2019-01-30T04:25:26.358Z,0.90
2019-01-30T04:26:04.253Z,0.90
2019-01-30T04:26:41.906Z,1.00
2019-01-30T04:27:22.477Z,1.00
2019-01-30T04:27:59.532Z,1.00
2019-01-30T04:28:37.199Z,1.00
2019-01-30T04:29:14.815Z,1.00
2019-01-30T04:29:52.208Z,1.00
2019-01-30T04:30:28.983Z,1.00
2019-01-30T04:31:15.494Z,1.00
2019-01-30T04:31:53.215Z,1.00
2019-01-30T04:32:31.824Z,1.00
2019-01-30T04:33:09.819Z,1.00
2019-01-30T04:33:47.458Z,1.00
2019-01-30T04:34:25.212Z,1.00
2019-01-30T04:35:02.929Z,1.00
2019-01-30T04:35:40.711Z,1.00
2019-01-30T04:36:17.800Z,1.00
2019-01-30T04:36:55.394Z,1.00
2019-01-30T04:37:33.218Z,1.00
2019-01-30T04:38:10.268Z,1.00
2019-01-30T04:38:50.378Z,1.00
2019-01-30T04:39:28.478Z,1.00
2019-01-30T04:40:07.623Z,1.00
2019-01-30T04:40:45.470Z,1.00
2019-01-30T04:41:23.561Z,1.00
2019-01-30T04:42:00.874Z,1.00
2019-01-30T04:42:38.438Z,1.00
2019-01-30T04:43:16.111Z,1.00
2019-01-30T04:43:53.272Z,1.00
2019-01-30T04:44:30.826Z,1.00
2019-01-30T04:45:11.071Z,1.00
2019-01-30T04:45:48.469Z,1.00
2019-01-30T04:46:26.665Z,1.00
2019-01-30T04:47:04.542Z,1.00
2019-01-30T04:47:42.396Z,1.00
2019-01-30T04:48:20.034Z,1.00
2019-01-30T04:48:57.715Z,1.00
2019-01-30T04:49:36.116Z,1.00
2019-01-30T04:50:14.303Z,1.00
2019-01-30T04:50:52.367Z,1.00
2019-01-30T04:51:30.201Z,1.00
2019-01-30T04:52:08.275Z,1.00
2019-01-30T04:52:46.365Z,1.00
2019-01-30T04:53:23.829Z,1.00
2019-01-30T04:54:01.658Z,1.00
2019-01-30T04:54:38.801Z,1.00
2019-01-30T04:55:16.638Z,1.00
2019-01-30T04:55:54.660Z,1.00
2019-01-30T04:56:32.370Z,1.00
2019-01-30T04:57:10.265Z,1.00
2019-01-30T04:57:48.028Z,0.90
2019-01-30T04:58:26.383Z,0.90
2019-01-30T04:59:04.545Z,0.90
2019-01-30T04:59:42.733Z,0.90
2019-01-30T05:00:25.917Z,0.90
2019-01-30T05:01:03.115Z,0.80
2019-01-30T05:01:49.543Z,0.80
2019-01-30T05:02:20.831Z,0.80
2019-01-30T05:02:58.623Z,0.80
2019-01-30T05:03:36.285Z,0.80
2019-01-30T05:04:14.683Z,0.70
2019-01-30T05:04:52.961Z,0.70
2019-01-30T05:05:31.010Z,0.70
2019-01-30T05:06:08.587Z,0.60
2019-01-30T05:06:46.801Z,0.60
2019-01-30T05:07:24.300Z,0.60
2019-01-30T05:08:02.803Z,0.60
2019-01-30T05:09:00.002Z,0.50
2019-01-30T05:09:38.047Z,0.50
2019-01-30T05:10:16.390Z,0.50
2019-01-30T05:10:53.661Z,0.40
2019-01-30T05:11:31.605Z,0.40
2019-01-30T05:12:09.280Z,0.40
2019-01-30T05:12:47.720Z,0.40
2019-01-30T05:13:25.300Z,0.30
2019-01-30T05:14:03.767Z,0.30
2019-01-30T05:14:41.942Z,0.30
2019-01-30T05:15:20.414Z,0.30
2019-01-30T05:15:58.512Z,0.20
2019-01-30T05:16:36.301Z,0.20
2019-01-30T05:17:14.385Z,0.20
2019-01-30T05:17:52.715Z,0.10
2019-01-30T05:18:30.809Z,0.10
2019-01-30T05:19:08.515Z,0.10
2019-01-30T05:19:46.732Z,0.10
2019-01-30T05:20:24.392Z,0.00
2019-01-30T05:21:02.073Z,0.00
2019-01-30T05:21:40.218Z,0.00
2019-01-30T05:22:18.245Z,-0.10
2019-01-30T05:22:56.356Z,0.00
2019-01-30T05:23:34.225Z,-0.10
2019-01-30T05:24:12.200Z,-0.10
2019-01-30T05:24:50.474Z,-0.10
2019-01-30T05:25:28.603Z,-0.10
2019-01-30T05:26:06.775Z,-0.10
2019-01-30T05:26:44.674Z,-0.10
2019-01-30T05:27:22.433Z,-0.10
2019-01-30T05:28:00.749Z,-0.20
2019-01-30T05:28:38.040Z,-0.10
2019-01-30T05:29:15.631Z,-0.20
2019-01-30T05:29:53.050Z,-0.10
2019-01-30T05:30:32.530Z,-0.20
2019-01-30T05:31:10.805Z,-0.20
2019-01-30T05:31:48.819Z,-0.20
2019-01-30T05:32:25.811Z,-0.20
2019-01-30T05:33:04.232Z,-0.20
2019-01-30T05:33:42.041Z,-0.20
2019-01-30T05:34:19.753Z,-0.20
2019-01-30T05:34:57.753Z,-0.20
2019-01-30T05:35:34.957Z,-0.20
2019-01-30T05:36:12.745Z,-0.30
2019-01-30T05:36:50.673Z,-0.30
2019-01-30T05:37:32.399Z,-0.30
2019-01-30T05:38:10.263Z,-0.30
2019-01-30T05:38:48.019Z,-0.30
2019-01-30T05:39:25.409Z,-0.30
2019-01-30T05:40:03.458Z,-0.30
2019-01-30T05:40:42.493Z,-0.30
2019-01-30T05:41:20.727Z,-0.30
2019-01-30T05:41:58.393Z,-0.30
2019-01-30T05:42:36.239Z,-0.30
2019-01-30T05:43:14.500Z,-0.40
2019-01-30T05:43:52.158Z,-0.30
2019-01-30T05:44:30.442Z,-0.30
2019-01-30T05:45:10.657Z,-0.30
2019-01-30T05:45:49.043Z,-0.30
2019-01-30T05:46:27.335Z,-0.40
2019-01-30T05:47:05.306Z,-0.40
2019-01-30T05:47:43.757Z,-0.40
2019-01-30T05:48:21.898Z,-0.40
2019-01-30T05:49:00.008Z,-0.40
2019-01-30T05:49:38.018Z,-0.40
2019-01-30T05:50:16.514Z,-0.40
2019-01-30T05:50:54.290Z,-0.40
2019-01-30T05:51:32.304Z,-0.40
2019-01-30T05:52:10.251Z,-0.40
2019-01-30T05:52:48.018Z,-0.40
2019-01-30T05:53:25.493Z,-0.40
2019-01-30T05:54:03.569Z,-0.40
2019-01-30T05:54:41.364Z,-0.40
2019-01-30T05:55:18.947Z,-0.40
2019-01-30T05:55:56.810Z,-0.50
2019-01-30T05:56:34.811Z,-0.40
2019-01-30T05:57:13.480Z,-0.40
2019-01-30T05:57:51.217Z,-0.40
2019-01-30T05:58:28.519Z,-0.50
2019-01-30T05:59:06.994Z,-0.40
2019-01-30T05:59:44.958Z,-0.50
2019-01-30T06:00:26.514Z,-0.50
2019-01-30T06:01:04.319Z,-0.50
2019-01-30T06:01:41.827Z,-0.50
2019-01-30T06:02:19.829Z,-0.50
2019-01-30T06:02:57.933Z,-0.50
2019-01-30T06:03:35.831Z,-0.50
2019-01-30T06:04:13.891Z,-0.50
2019-01-30T06:04:51.424Z,-0.50
2019-01-30T06:05:29.409Z,-0.50
2019-01-30T06:06:07.457Z,-0.50
2019-01-30T06:06:45.397Z,-0.50
2019-01-30T06:07:23.385Z,-0.50
2019-01-30T06:08:00.861Z,-0.50
2019-01-30T06:08:38.544Z,-0.50
2019-01-30T06:09:16.251Z,-0.40
2019-01-30T06:09:53.565Z,-0.40
2019-01-30T06:10:32.181Z,-0.50
2019-01-30T06:11:12.153Z,-0.40
2019-01-30T06:11:49.951Z,-0.40
2019-01-30T06:12:27.407Z,-0.40
2019-01-30T06:13:05.577Z,-0.40
2019-01-30T06:13:43.365Z,-0.40
2019-01-30T06:14:21.469Z,-0.40
2019-01-30T06:14:59.910Z,-0.40
2019-01-30T06:15:37.961Z,-0.40
2019-01-30T06:16:15.771Z,-0.40
2019-01-30T06:16:53.290Z,-0.40
2019-01-30T06:17:31.233Z,-0.40
2019-01-30T06:18:09.171Z,-0.40
2019-01-30T06:18:47.006Z,-0.30
2019-01-30T06:19:25.383Z,-0.30
2019-01-30T06:20:03.975Z,-0.30
2019-01-30T06:20:41.369Z,-0.30
2019-01-30T06:21:19.253Z,-0.40
2019-01-30T06:21:57.462Z,-0.30
2019-01-30T06:22:35.927Z,-0.30
2019-01-30T06:23:14.210Z,-0.30
2019-01-30T06:23:52.187Z,-0.30
2019-01-30T06:24:29.765Z,-0.40
2019-01-30T06:25:08.672Z,-0.30
2019-01-30T06:25:46.671Z,-0.30
2019-01-30T06:26:24.509Z,-0.30
2019-01-30T06:27:02.128Z,-0.30
2019-01-30T06:27:40.170Z,-0.30
2019-01-30T06:28:17.893Z,-0.30
2019-01-30T06:28:55.444Z,-0.30
2019-01-30T06:29:33.219Z,-0.30
2019-01-30T06:30:13.383Z,-0.20
2019-01-30T06:30:51.361Z,-0.20
2019-01-30T06:31:29.225Z,-0.20
2019-01-30T06:32:07.469Z,-0.20
2019-01-30T06:32:45.237Z,-0.10
2019-01-30T06:33:23.064Z,-0.10
2019-01-30T06:34:00.904Z,-0.10
2019-01-30T06:34:38.365Z,-0.10
2019-01-30T06:35:16.455Z,-0.10
2019-01-30T06:35:54.339Z,0.00
2019-01-30T06:36:31.841Z,0.00
2019-01-30T06:37:09.671Z,0.00
2019-01-30T06:37:47.397Z,0.00
2019-01-30T06:38:25.423Z,0.00
2019-01-30T06:39:03.624Z,0.10
2019-01-30T06:39:40.653Z,0.10
2019-01-30T06:40:23.555Z,0.10
2019-01-30T06:41:01.451Z,0.10
2019-01-30T06:41:40.817Z,0.10
2019-01-30T06:42:19.003Z,0.20
2019-01-30T06:42:56.553Z,0.20
2019-01-30T06:43:34.332Z,0.20
2019-01-30T06:44:11.811Z,0.20
2019-01-30T06:44:49.019Z,0.20
2019-01-30T06:45:26.964Z,0.30
2019-01-30T06:46:05.165Z,0.20
2019-01-30T06:46:42.673Z,0.30
2019-01-30T06:47:20.710Z,0.30
2019-01-30T06:47:58.541Z,0.30
2019-01-30T06:48:36.623Z,0.30
2019-01-30T06:49:20.839Z,0.30
2019-01-30T06:49:58.931Z,0.30
2019-01-30T06:50:36.783Z,0.30
2019-01-30T06:51:13.856Z,0.40
2019-01-30T06:51:51.617Z,0.40
2019-01-30T06:52:37.173Z,0.40
2019-01-30T06:53:14.811Z,0.40
2019-01-30T06:53:52.530Z,0.40
2019-01-30T06:54:29.835Z,0.40
2019-01-30T06:55:07.923Z,0.40
2019-01-30T06:55:48.427Z,0.40
2019-01-30T06:56:29.336Z,0.40
2019-01-30T06:57:07.410Z,0.40
2019-01-30T06:57:45.135Z,0.40
2019-01-30T06:58:23.085Z,0.40
2019-01-30T06:59:01.487Z,0.40
2019-01-30T06:59:39.691Z,0.50
2019-01-30T07:00:19.819Z,0.50
2019-01-30T07:00:57.860Z,0.50
2019-01-30T07:01:36.398Z,0.50
2019-01-30T07:02:13.951Z,0.50
2019-01-30T07:02:52.112Z,0.50
2019-01-30T07:03:33.425Z,0.50
2019-01-30T07:04:11.471Z,0.50
2019-01-30T07:04:49.563Z,0.50
2019-01-30T07:05:27.408Z,0.50
2019-01-30T07:06:07.756Z,0.50
2019-01-30T07:06:44.341Z,0.50
2019-01-30T07:07:21.999Z,0.60
2019-01-30T07:08:00.012Z,0.50
2019-01-30T07:08:38.376Z,0.60
2019-01-30T07:09:17.061Z,0.60
2019-01-30T07:09:55.528Z,0.60
2019-01-30T07:10:33.575Z,0.60
2019-01-30T07:11:11.167Z,0.60
2019-01-30T07:11:49.143Z,0.60
2019-01-30T07:12:27.047Z,0.60
2019-01-30T07:13:04.845Z,0.60
2019-01-30T07:13:42.947Z,0.60
2019-01-30T07:14:21.092Z,0.70
2019-01-30T07:14:58.907Z,0.70
2019-01-30T07:15:36.837Z,0.70
2019-01-30T07:16:14.175Z,0.70
2019-01-30T07:16:51.879Z,0.70
2019-01-30T07:17:29.524Z,0.70
2019-01-30T07:18:07.063Z,0.70
2019-01-30T07:18:45.131Z,0.80
2019-01-30T07:19:23.291Z,0.80
2019-01-30T07:20:01.089Z,0.80
2019-01-30T07:20:39.212Z,0.80
2019-01-30T07:21:17.318Z,0.80
2019-01-30T07:21:55.341Z,0.90
2019-01-30T07:22:33.483Z,0.90
2019-01-30T07:23:11.356Z,0.90
2019-01-30T07:23:49.119Z,0.90
2019-01-30T07:24:26.924Z,0.90
2019-01-30T07:25:05.252Z,0.90
2019-01-30T07:25:43.132Z,0.90
2019-01-30T07:26:20.797Z,0.90
2019-01-30T07:26:58.391Z,1.00
2019-01-30T07:27:35.878Z,1.00
2019-01-30T07:28:13.679Z,1.00
2019-01-30T07:28:51.424Z,1.00
2019-01-30T07:29:29.227Z,1.00
2019-01-30T07:30:11.018Z,1.00
2019-01-30T07:30:48.385Z,1.00
2019-01-30T07:31:27.604Z,1.00
2019-01-30T07:32:04.642Z,1.00
2019-01-30T07:32:42.557Z,1.00
2019-01-30T07:33:20.897Z,1.00
2019-01-30T07:33:58.532Z,1.00
2019-01-30T07:34:36.207Z,1.10
2019-01-30T07:35:14.175Z,1.10
2019-01-30T07:35:51.992Z,1.10
2019-01-30T07:36:29.400Z,1.10
2019-01-30T07:37:07.047Z,1.10
2019-01-30T07:37:45.163Z,1.10
2019-01-30T07:38:23.030Z,1.10
2019-01-30T07:39:00.747Z,1.10
2019-01-30T07:39:38.200Z,1.10
2019-01-30T07:40:16.606Z,1.10
2019-01-30T07:40:54.295Z,1.10
2019-01-30T07:41:31.656Z,1.10
2019-01-30T07:42:09.355Z,1.10
2019-01-30T07:42:47.392Z,1.10
2019-01-30T07:43:25.657Z,1.10
2019-01-30T07:44:03.408Z,1.20
2019-01-30T07:44:50.261Z,1.20
2019-01-30T07:45:21.691Z,1.20
2019-01-30T07:45:59.647Z,1.20
2019-01-30T07:46:37.013Z,1.20
2019-01-30T07:47:14.744Z,1.20
2019-01-30T07:47:52.173Z,1.20
2019-01-30T07:48:29.562Z,1.20
2019-01-30T07:49:07.023Z,1.20
2019-01-30T07:49:44.711Z,1.20
2019-01-30T07:50:23.021Z,1.30
2019-01-30T07:51:00.835Z,1.30
2019-01-30T07:51:38.228Z,1.30
2019-01-30T07:52:15.491Z,1.30
2019-01-30T07:52:53.025Z,1.30
2019-01-30T07:53:30.768Z,1.30
2019-01-30T07:54:08.529Z,1.30
2019-01-30T07:54:45.876Z,1.30
2019-01-30T07:55:23.354Z,1.40
2019-01-30T07:56:01.403Z,1.40
2019-01-30T07:56:39.248Z,1.40
2019-01-30T07:57:16.932Z,1.40
2019-01-30T07:57:54.330Z,1.40
2019-01-30T07:58:32.135Z,1.40
2019-01-30T07:59:09.984Z,1.50
2019-01-30T07:59:47.827Z,1.50
2019-01-30T08:00:28.967Z,1.50
2019-01-30T08:01:06.730Z,1.50
2019-01-30T08:01:44.601Z,1.50
2019-01-30T08:02:22.718Z,1.50
2019-01-30T08:03:00.507Z,1.50
2019-01-30T08:03:40.575Z,1.60
2019-01-30T08:04:20.165Z,1.60
2019-01-30T08:04:57.927Z,1.60
2019-01-30T08:05:35.370Z,1.60
2019-01-30T08:06:12.911Z,1.70
2019-01-30T08:06:50.909Z,1.70
2019-01-30T08:07:28.760Z,1.70
2019-01-30T08:08:06.792Z,1.70
2019-01-30T08:08:44.285Z,1.70
2019-01-30T08:09:21.504Z,1.80
2019-01-30T08:09:59.567Z,1.80
2019-01-30T08:10:37.808Z,1.80
2019-01-30T08:11:15.487Z,1.80
2019-01-30T08:11:53.498Z,1.80
2019-01-30T08:12:31.353Z,1.90
2019-01-30T08:13:08.624Z,1.90
2019-01-30T08:13:46.116Z,1.90
2019-01-30T08:14:26.176Z,1.90
2019-01-30T08:15:04.847Z,1.90
2019-01-30T08:15:43.010Z,1.90
2019-01-30T08:16:21.851Z,2.00
2019-01-30T08:16:59.941Z,2.00
2019-01-30T08:17:37.384Z,2.00
2019-01-30T08:18:15.410Z,2.00
2019-01-30T08:18:52.853Z,2.10
2019-01-30T08:19:30.594Z,2.10
2019-01-30T08:20:10.654Z,2.10
2019-01-30T08:20:48.646Z,2.10
2019-01-30T08:21:28.051Z,2.10
2019-01-30T08:22:05.868Z,2.20
2019-01-30T08:22:43.486Z,2.20
2019-01-30T08:23:21.418Z,2.20
2019-01-30T08:23:58.889Z,2.20
2019-01-30T08:24:36.528Z,2.20
2019-01-30T08:25:16.870Z,2.20
2019-01-30T08:25:55.264Z,2.20
2019-01-30T08:26:35.519Z,2.20